< Cyclone 197408 1974 Season Cyclone 197501 >
Cyclone 197409 (FIONA-GWENDA)
General InformationDetailed Track InformationTrack Information on Google Maps || ResourceGoogle EarthGE AnimationAtom FeedGeoJSON
Detalied Best Track Wind (Time Zone = UTC)
Year Month Day Hour Lat. Long. Wind (kt) Gust (kt) Direc. of Major Storm Axis Radius of Major Storm Axis (nm) Radius of Minor Storm Axis (nm) Direc. of Major Gale Axis Radius of Major Gale Axis (nm) Radius of Minor Gale Axis (nm) Image
1974 1 6 01 -14.4 125.3 30 -1 symmetric - - symmetric - - --
1974 1 6 04 -14.4 125.0 30 -1 symmetric - - symmetric - - --
1974 1 6 07 -14.4 124.6 30 -1 symmetric - - symmetric - - --
1974 1 6 10 -14.4 124.3 30 -1 symmetric - - symmetric - - --
1974 1 6 13 -14.4 124.0 30 -1 symmetric - - symmetric - - --
1974 1 6 16 -14.5 123.7 30 -1 symmetric - - symmetric - - --
1974 1 6 19 -14.6 123.4 35 -1 symmetric - - symmetric - - --
1974 1 6 22 -14.7 123.2 35 -1 symmetric - - symmetric - - --
1974 1 7 01 -14.8 123.1 40 -1 symmetric - - symmetric - - --
1974 1 7 04 -14.9 123.0 40 -1 symmetric - - symmetric - - --
1974 1 7 07 -15.0 122.9 40 -1 symmetric - - symmetric - - --
1974 1 7 10 -15.1 122.9 40 -1 symmetric - - symmetric - - --
1974 1 7 13 -15.2 122.9 45 -1 symmetric - - symmetric - - --
1974 1 7 16 -15.3 122.9 45 -1 symmetric - - symmetric - - --
1974 1 7 19 -15.5 122.9 50 -1 symmetric - - symmetric - - --
1974 1 7 22 -15.6 123.0 50 -1 symmetric - - symmetric - - --
1974 1 8 01 -15.8 123.0 50 -1 symmetric - - symmetric - - --
1974 1 8 04 -16.0 123.0 50 -1 symmetric - - symmetric - - --
1974 1 8 07 -16.2 123.0 55 -1 symmetric - - symmetric - - --
1974 1 8 10 -16.4 123.0 55 -1 symmetric - - symmetric - - --
1974 1 8 13 -16.6 123.0 50 -1 symmetric - - symmetric - - --
1974 1 8 16 -16.8 123.1 45 -1 symmetric - - symmetric - - --
1974 1 8 19 -17.0 123.1 35 -1 symmetric - - symmetric - - --
1974 1 8 22 -17.2 123.2 35 90 symmetric - - symmetric - - --
1974 1 9 01 -17.4 123.2 30 -1 symmetric - - symmetric - - --
1974 1 9 04 -17.7 123.1 30 -1 symmetric - - symmetric - - --
1974 1 9 07 -17.9 122.8 30 -1 symmetric - - symmetric - - --
1974 1 9 10 -18.1 122.5 30 -1 symmetric - - symmetric - - --
1974 1 9 13 -18.1 122.2 30 -1 symmetric - - symmetric - - --
1974 1 9 16 -18.2 121.6 30 -1 symmetric - - symmetric - - --
1974 1 9 19 -18.2 121.0 40 -1 symmetric - - symmetric - - --
1974 1 9 22 -18.2 120.4 40 -1 symmetric - - symmetric - - --
1974 1 10 01 -18.2 119.8 40 -1 symmetric - - symmetric - - --
1974 1 10 04 -18.1 119.4 40 -1 symmetric - - symmetric - - --
1974 1 10 07 -18.2 118.9 40 -1 symmetric - - symmetric - - --
1974 1 10 10 -18.2 118.4 40 -1 symmetric - - symmetric - - --
1974 1 10 13 -18.3 117.9 40 -1 symmetric - - symmetric - - --
1974 1 10 16 -18.4 117.4 50 -1 symmetric - - symmetric - - --
1974 1 10 19 -18.6 116.8 50 -1 symmetric - - symmetric - - --
1974 1 10 22 -19.0 116.1 50 -1 symmetric - - symmetric - - --
1974 1 11 01 -19.1 115.7 50 -1 symmetric - - symmetric - - --
1974 1 11 04 -19.1 115.1 50 -1 symmetric - - symmetric - - --
1974 1 11 07 -19.1 114.5 50 -1 symmetric - - symmetric - - --
1974 1 11 10 -19.2 114.0 45 -1 symmetric - - symmetric - - --
1974 1 11 13 -19.2 113.5 40 -1 symmetric - - symmetric - - --
1974 1 11 16 -19.2 113.0 35 -1 symmetric - - symmetric - - --
1974 1 11 19 -19.1 112.5 30 -1 symmetric - - symmetric - - --
1974 1 11 22 -19.0 111.9 30 -1 symmetric - - symmetric - - --
1974 1 12 01 -18.8 111.3 30 -1 symmetric - - symmetric - - --
1974 1 12 04 -18.6 110.5 30 -1 symmetric - - symmetric - - --
1974 1 12 07 -18.4 109.8 30 -1 symmetric - - symmetric - - --
1974 1 12 10 -18.2 109.1 30 -1 symmetric - - symmetric - - --
1974 1 12 13 -18.0 108.3 30 -1 symmetric - - symmetric - - --
1974 1 12 16 -17.7 107.6 30 -1 symmetric - - symmetric - - --
1974 1 12 19 -17.4 106.8 25 -1 symmetric - - symmetric - - --
1974 1 12 22 -17.2 106.1 25 -1 symmetric - - symmetric - - --
1974 1 13 01 -17.0 105.5 25 -1 symmetric - - symmetric - - --
< Cyclone 197408 1974 Season Cyclone 197501 >

Help